No1 Tokuyama — JK5318 — position and weather

sailwx.info

Track history (hours):
 
Tides and Currents Weather Stations Pressure Air Temp Water Temp Dewpoint Dewpoint Depression Visibility Wind Speed Wind Dir Waves Ship Positions

No1 Tokuyama

Last reported at 2016-Aug-26 11:32 UTC. Time now 2016-Aug-30 17:10 UTC.
Position N 34°35' E 134°52'.

Length 110 m; draft 6.7 m.

Type: Cargo ship. MMSI: 431400487.

Date/timePositionNaut miles runAvg speedWind from/ knotsBaromVisibWave heightAir tempDewpointWater temp
2016-Aug-26 11:32N 34°35' E 134°52'1111.3
2016-Aug-26 10:33N 34°36' E 135°05'9 9.3
2016-Aug-26 09:33N 34°40' E 135°15'2 1.8
2016-Aug-26 08:33N 34°42' E 135°14'0 0.0
2016-Aug-26 07:33N 34°42' E 135°14'0 0.0
2016-Aug-26 06:27N 34°42' E 135°14'0 0.0
2016-Aug-26 04:33N 34°42' E 135°14'0 0.0
2016-Aug-26 03:27N 34°42' E 135°14'0 0.0
2016-Aug-26 02:33N 34°42' E 135°14'0 0.0
2016-Aug-26 01:33N 34°42' E 135°14'0 0.0
2016-Aug-26 00:27N 34°42' E 135°14'0 0.0
2016-Aug-25 23:27N 34°42' E 135°14'5 5.7
2016-Aug-25 22:33N 34°38' E 135°18'1 0.8
2016-Aug-25 21:25N 34°38' E 135°20'0 0.1
2016-Aug-25 20:31N 34°38' E 135°20'0 0.0
2016-Aug-25 19:31N 34°38' E 135°20'0 0.0
2016-Aug-25 18:31N 34°38' E 135°20'0 0.1
2016-Aug-25 17:31N 34°38' E 135°20'0 0.0
2016-Aug-25 16:31N 34°38' E 135°20'0 0.0
2016-Aug-25 15:19N 34°38' E 135°20'0 0.0
2016-Aug-25 14:31N 34°38' E 135°20'0 0.0
2016-Aug-25 13:31N 34°38' E 135°20'0 0.0
2016-Aug-25 12:31N 34°38' E 135°20'0 0.0
2016-Aug-25 11:07N 34°38' E 135°20'0 0.0
2016-Aug-25 10:19N 34°38' E 135°20'0 0.0
2016-Aug-25 09:31N 34°38' E 135°20'0 0.0
2016-Aug-25 08:31N 34°38' E 135°20'0 0.0
2016-Aug-25 07:31N 34°38' E 135°20'0 0.0
2016-Aug-25 06:25N 34°38' E 135°20'5 2.5
2016-Aug-25 04:32N 34°42' E 135°17'0 0.0
2016-Aug-25 03:32N 34°42' E 135°17'0 0.0
2016-Aug-25 02:32N 34°42' E 135°17'0 0.0
2016-Aug-25 01:32N 34°42' E 135°17'0 0.0
2016-Aug-25 00:32N 34°42' E 135°17'0 0.0
2016-Aug-24 23:32N 34°42' E 135°17'0 0.0
2016-Aug-24 22:32N 34°42' E 135°17'0 0.0
2016-Aug-24 21:32N 34°42' E 135°17'0 0.0
2016-Aug-24 20:32N 34°42' E 135°17'0 0.0
2016-Aug-24 19:32N 34°42' E 135°17'0 0.0
2016-Aug-24 18:32N 34°42' E 135°17'0 0.0
2016-Aug-24 17:32N 34°42' E 135°17'0 0.0
2016-Aug-24 16:32N 34°42' E 135°17'0 0.0
2016-Aug-24 15:32N 34°42' E 135°17'0 0.0
2016-Aug-24 14:32N 34°42' E 135°17'0 0.0
2016-Aug-24 13:20N 34°42' E 135°17'0 0.0
2016-Aug-24 12:32N 34°42' E 135°17'0 0.0
2016-Aug-24 11:32N 34°42' E 135°17'0 0.0
2016-Aug-24 10:32N 34°42' E 135°17'0 0.0
2016-Aug-24 09:32N 34°42' E 135°17'0 0.0
2016-Aug-24 08:32N 34°42' E 135°17'0 0.0
2016-Aug-24 07:26N 34°42' E 135°17'0 0.0
2016-Aug-24 06:32N 34°42' E 135°17'0 0.0
2016-Aug-24 04:20N 34°42' E 135°17'0 0.0
2016-Aug-24 03:32N 34°42' E 135°17'4 3.9
2016-Aug-24 02:33N 34°40' E 135°20'5 5.4
2016-Aug-24 01:33N 34°39' E 135°27'0 0.0
2016-Aug-24 00:32N 34°39' E 135°27'0 0.0
2016-Aug-23 23:32N 34°39' E 135°27'0 0.0
2016-Aug-23 22:32N 34°39' E 135°27'0 0.0
2016-Aug-23 21:32N 34°39' E 135°27'0 0.0
2016-Aug-23 20:32N 34°39' E 135°27'0 0.0
2016-Aug-23 19:32N 34°39' E 135°27'0 0.0
2016-Aug-23 18:32N 34°39' E 135°27'0 0.0
2016-Aug-23 17:32N 34°39' E 135°27'0 0.0
2016-Aug-23 16:32N 34°39' E 135°27'0 0.0
2016-Aug-23 15:32N 34°39' E 135°27'0 0.0
2016-Aug-23 14:26N 34°39' E 135°27'0 0.0
2016-Aug-23 13:32N 34°39' E 135°27'0 0.0
2016-Aug-23 12:32N 34°39' E 135°27'0 0.0
2016-Aug-23 11:32N 34°39' E 135°27'0 0.0
2016-Aug-23 10:32N 34°39' E 135°27'0 0.0
2016-Aug-23 09:32N 34°39' E 135°27'0 0.0
2016-Aug-23 08:26N 34°39' E 135°27'0 0.0
2016-Aug-23 07:32N 34°39' E 135°27'0 0.0
2016-Aug-23 06:32N 34°39' E 135°27'0 0.0
2016-Aug-23 05:32N 34°39' E 135°27'0 0.0
2016-Aug-23 04:32N 34°39' E 135°27'0 0.0
2016-Aug-23 03:32N 34°39' E 135°27'4 4.0
2016-Aug-23 02:31N 34°37' E 135°22'0 0.0
2016-Aug-23 01:31N 34°37' E 135°22'0 0.0
2016-Aug-23 00:25N 34°37' E 135°22'0 0.0
2016-Aug-22 23:31N 34°37' E 135°22'3 3.1
2016-Aug-22 22:33N 34°35' E 135°20'1312.5
2016-Aug-22 21:33N 34°35' E 135°05'  
2016-Aug-19 12:33N 34°35' E 134°52'1414.3
2016-Aug-19 11:33N 34°36' E 135°10'7 7.0
2016-Aug-19 10:33N 34°42' E 135°14'0 0.0
2016-Aug-19 09:22N 34°42' E 135°14'0 0.0
2016-Aug-19 08:28N 34°42' E 135°14'0 0.0
2016-Aug-19 07:22N 34°42' E 135°14'0 0.0
2016-Aug-19 06:28N 34°42' E 135°14'0 0.0
2016-Aug-19 04:16N 34°42' E 135°14'0 0.0
2016-Aug-19 03:28N 34°42' E 135°14'0 0.0
2016-Aug-19 02:22N 34°42' E 135°14'0 0.0
2016-Aug-19 01:28N 34°42' E 135°14'0 0.0
2016-Aug-19 00:28N 34°42' E 135°14'0 0.0
2016-Aug-18 23:29N 34°42' E 135°14'5 5.4
2016-Aug-18 22:33N 34°38' E 135°18'1 1.0
2016-Aug-18 21:25N 34°38' E 135°20'0 0.0
2016-Aug-18 20:31N 34°38' E 135°20'0 0.0
2016-Aug-18 19:31N 34°38' E 135°20'0 0.1
2016-Aug-18 18:33N 34°38' E 135°19'1312.7
2016-Aug-18 17:34N 34°35' E 135°05'11 0.3
2016-Aug-17 04:30N 34°35' E 134°52'9 9.2
2016-Aug-17 03:33N 34°37' E 135°02'1111.2
2016-Aug-17 02:33N 34°36' E 135°16'9 9.4
2016-Aug-17 01:33N 34°39' E 135°27'0 0.0
2016-Aug-17 00:20N 34°39' E 135°27'0 0.0
2016-Aug-16 23:32N 34°39' E 135°27'0 0.0
2016-Aug-16 22:26N 34°39' E 135°27'0 0.0
2016-Aug-16 21:20N 34°39' E 135°27'0 0.0
2016-Aug-16 20:32N 34°39' E 135°27'0 0.0
2016-Aug-16 19:32N 34°39' E 135°27'0 0.0
2016-Aug-16 18:32N 34°39' E 135°27'0 0.0
2016-Aug-16 17:32N 34°39' E 135°27'0 0.0
2016-Aug-16 16:32N 34°39' E 135°27'0 0.0
2016-Aug-16 15:32N 34°39' E 135°27'0 0.0
2016-Aug-16 14:32N 34°39' E 135°27'0 0.0
2016-Aug-16 13:32N 34°39' E 135°27'0 0.0
2016-Aug-16 12:32N 34°39' E 135°27'  
Track history (hours):
 
Tides and Currents Weather Stations Pressure Air Temp Water Temp Dewpoint Dewpoint Depression Visibility Wind Speed Wind Dir Waves Ship Positions

No1 Tokuyama

Last reported at 2016-Aug-26 11:32 UTC. Time now 2016-Aug-30 17:10 UTC.
Position N 34°35' E 134°52'.

Length 110 m; draft 6.7 m.

Type: Cargo ship. MMSI: 431400487.

Date/timePositionNaut miles runAvg speedWind from/ knotsBaromVisibWave heightAir tempDewpointWater temp
2016-Aug-26 11:32N 34°35' E 134°52'1111.3
2016-Aug-26 10:33N 34°36' E 135°05'9 9.3
2016-Aug-26 09:33N 34°40' E 135°15'2 1.8
2016-Aug-26 08:33N 34°42' E 135°14'0 0.0
2016-Aug-26 07:33N 34°42' E 135°14'0 0.0
2016-Aug-26 06:27N 34°42' E 135°14'0 0.0
2016-Aug-26 04:33N 34°42' E 135°14'0 0.0
2016-Aug-26 03:27N 34°42' E 135°14'0 0.0
2016-Aug-26 02:33N 34°42' E 135°14'0 0.0
2016-Aug-26 01:33N 34°42' E 135°14'0 0.0
2016-Aug-26 00:27N 34°42' E 135°14'0 0.0
2016-Aug-25 23:27N 34°42' E 135°14'5 5.7
2016-Aug-25 22:33N 34°38' E 135°18'1 0.8
2016-Aug-25 21:25N 34°38' E 135°20'0 0.1
2016-Aug-25 20:31N 34°38' E 135°20'0 0.0
2016-Aug-25 19:31N 34°38' E 135°20'0 0.0
2016-Aug-25 18:31N 34°38' E 135°20'0 0.1
2016-Aug-25 17:31N 34°38' E 135°20'0 0.0
2016-Aug-25 16:31N 34°38' E 135°20'0 0.0
2016-Aug-25 15:19N 34°38' E 135°20'0 0.0
2016-Aug-25 14:31N 34°38' E 135°20'0 0.0
2016-Aug-25 13:31N 34°38' E 135°20'0 0.0
2016-Aug-25 12:31N 34°38' E 135°20'0 0.0
2016-Aug-25 11:07N 34°38' E 135°20'0 0.0
2016-Aug-25 10:19N 34°38' E 135°20'0 0.0
2016-Aug-25 09:31N 34°38' E 135°20'0 0.0
2016-Aug-25 08:31N 34°38' E 135°20'0 0.0
2016-Aug-25 07:31N 34°38' E 135°20'0 0.0
2016-Aug-25 06:25N 34°38' E 135°20'5 2.5
2016-Aug-25 04:32N 34°42' E 135°17'0 0.0
2016-Aug-25 03:32N 34°42' E 135°17'0 0.0
2016-Aug-25 02:32N 34°42' E 135°17'0 0.0
2016-Aug-25 01:32N 34°42' E 135°17'0 0.0
2016-Aug-25 00:32N 34°42' E 135°17'0 0.0
2016-Aug-24 23:32N 34°42' E 135°17'0 0.0
2016-Aug-24 22:32N 34°42' E 135°17'0 0.0
2016-Aug-24 21:32N 34°42' E 135°17'0 0.0
2016-Aug-24 20:32N 34°42' E 135°17'0 0.0
2016-Aug-24 19:32N 34°42' E 135°17'0 0.0
2016-Aug-24 18:32N 34°42' E 135°17'0 0.0
2016-Aug-24 17:32N 34°42' E 135°17'0 0.0
2016-Aug-24 16:32N 34°42' E 135°17'0 0.0
2016-Aug-24 15:32N 34°42' E 135°17'0 0.0
2016-Aug-24 14:32N 34°42' E 135°17'0 0.0
2016-Aug-24 13:20N 34°42' E 135°17'0 0.0
2016-Aug-24 12:32N 34°42' E 135°17'0 0.0
2016-Aug-24 11:32N 34°42' E 135°17'0 0.0
2016-Aug-24 10:32N 34°42' E 135°17'0 0.0
2016-Aug-24 09:32N 34°42' E 135°17'0 0.0
2016-Aug-24 08:32N 34°42' E 135°17'0 0.0
2016-Aug-24 07:26N 34°42' E 135°17'0 0.0
2016-Aug-24 06:32N 34°42' E 135°17'0 0.0
2016-Aug-24 04:20N 34°42' E 135°17'0 0.0
2016-Aug-24 03:32N 34°42' E 135°17'4 3.9
2016-Aug-24 02:33N 34°40' E 135°20'5 5.4
2016-Aug-24 01:33N 34°39' E 135°27'0 0.0
2016-Aug-24 00:32N 34°39' E 135°27'0 0.0
2016-Aug-23 23:32N 34°39' E 135°27'0 0.0
2016-Aug-23 22:32N 34°39' E 135°27'0 0.0
2016-Aug-23 21:32N 34°39' E 135°27'0 0.0
2016-Aug-23 20:32N 34°39' E 135°27'0 0.0
2016-Aug-23 19:32N 34°39' E 135°27'0 0.0
2016-Aug-23 18:32N 34°39' E 135°27'0 0.0
2016-Aug-23 17:32N 34°39' E 135°27'0 0.0
2016-Aug-23 16:32N 34°39' E 135°27'0 0.0
2016-Aug-23 15:32N 34°39' E 135°27'0 0.0
2016-Aug-23 14:26N 34°39' E 135°27'0 0.0
2016-Aug-23 13:32N 34°39' E 135°27'0 0.0
2016-Aug-23 12:32N 34°39' E 135°27'0 0.0
2016-Aug-23 11:32N 34°39' E 135°27'0 0.0
2016-Aug-23 10:32N 34°39' E 135°27'0 0.0
2016-Aug-23 09:32N 34°39' E 135°27'0 0.0
2016-Aug-23 08:26N 34°39' E 135°27'0 0.0
2016-Aug-23 07:32N 34°39' E 135°27'0 0.0
2016-Aug-23 06:32N 34°39' E 135°27'0 0.0
2016-Aug-23 05:32N 34°39' E 135°27'0 0.0
2016-Aug-23 04:32N 34°39' E 135°27'0 0.0
2016-Aug-23 03:32N 34°39' E 135°27'4 4.0
2016-Aug-23 02:31N 34°37' E 135°22'0 0.0
2016-Aug-23 01:31N 34°37' E 135°22'0 0.0
2016-Aug-23 00:25N 34°37' E 135°22'0 0.0
2016-Aug-22 23:31N 34°37' E 135°22'3 3.1
2016-Aug-22 22:33N 34°35' E 135°20'1312.5
2016-Aug-22 21:33N 34°35' E 135°05'  
2016-Aug-19 12:33N 34°35' E 134°52'1414.3
2016-Aug-19 11:33N 34°36' E 135°10'7 7.0
2016-Aug-19 10:33N 34°42' E 135°14'0 0.0
2016-Aug-19 09:22N 34°42' E 135°14'0 0.0
2016-Aug-19 08:28N 34°42' E 135°14'0 0.0
2016-Aug-19 07:22N 34°42' E 135°14'0 0.0
2016-Aug-19 06:28N 34°42' E 135°14'0 0.0
2016-Aug-19 04:16N 34°42' E 135°14'0 0.0
2016-Aug-19 03:28N 34°42' E 135°14'0 0.0
2016-Aug-19 02:22N 34°42' E 135°14'0 0.0
2016-Aug-19 01:28N 34°42' E 135°14'0 0.0
2016-Aug-19 00:28N 34°42' E 135°14'0 0.0
2016-Aug-18 23:29N 34°42' E 135°14'5 5.4
2016-Aug-18 22:33N 34°38' E 135°18'1 1.0
2016-Aug-18 21:25N 34°38' E 135°20'0 0.0
2016-Aug-18 20:31N 34°38' E 135°20'0 0.0
2016-Aug-18 19:31N 34°38' E 135°20'0 0.1
2016-Aug-18 18:33N 34°38' E 135°19'1312.7
2016-Aug-18 17:34N 34°35' E 135°05'11 0.3
2016-Aug-17 04:30N 34°35' E 134°52'9 9.2
2016-Aug-17 03:33N 34°37' E 135°02'1111.2
2016-Aug-17 02:33N 34°36' E 135°16'9 9.4
2016-Aug-17 01:33N 34°39' E 135°27'0 0.0
2016-Aug-17 00:20N 34°39' E 135°27'0 0.0
2016-Aug-16 23:32N 34°39' E 135°27'0 0.0
2016-Aug-16 22:26N 34°39' E 135°27'0 0.0
2016-Aug-16 21:20N 34°39' E 135°27'0 0.0
2016-Aug-16 20:32N 34°39' E 135°27'0 0.0
2016-Aug-16 19:32N 34°39' E 135°27'0 0.0
2016-Aug-16 18:32N 34°39' E 135°27'0 0.0
2016-Aug-16 17:32N 34°39' E 135°27'0 0.0
2016-Aug-16 16:32N 34°39' E 135°27'0 0.0
2016-Aug-16 15:32N 34°39' E 135°27'0 0.0
2016-Aug-16 14:32N 34°39' E 135°27'0 0.0
2016-Aug-16 13:32N 34°39' E 135°27'0 0.0
2016-Aug-16 12:32N 34°39' E 135°27'  

Dump ship's entire track history